Time;durP1;ratioP1;P1;durP2;ratioP2;P2;SDS_P1;SDS_P2;PMS_P1;PMS_P2;Temp;Humidity;BMP_temperature;BMP_pressure;BME280_temperature;BME280_humidity;BME280_pressure;Samples;Min_cycle;Max_cycle;Signal;HPM_P1;HPM_P2
2024/01/08 00:00:37;;;;;;;23.60;16.00;;;;;;;-7.34;100.00;96600.07;108337;1283;22533;-86
2024/01/08 00:03:23;;;;;;;27.30;18.30;;;;;;;-7.34;100.00;96602.42;108274;1269;22534;-85
2024/01/08 00:05:50;;;;;;;22.60;15.60;;;;;;;-7.32;100.00;96602.88;108179;1283;138830;-85
2024/01/08 00:08:17;;;;;;;27.10;18.40;;;;;;;-7.31;100.00;96607.03;108344;1282;22536;-85
2024/01/08 00:10:47;;;;;;;27.00;18.80;;;;;;;-7.31;100.00;96606.52;108187;1281;138672;-86
2024/01/08 00:13:14;;;;;;;20.50;15.20;;;;;;;-7.31;100.00;96609.55;109865;1281;22128;-86
2024/01/08 00:15:40;;;;;;;25.30;16.70;;;;;;;-7.33;100.00;96611.14;109869;1283;22378;-86
2024/01/08 00:18:07;;;;;;;21.80;13.90;;;;;;;-7.34;100.00;96614.38;108721;1274;137844;-85
2024/01/08 00:20:33;;;;;;;23.50;15.60;;;;;;;-7.35;100.00;96614.25;108438;1279;22523;-86
2024/01/08 00:23:00;;;;;;;24.20;17.20;;;;;;;-7.35;100.00;96617.45;108366;1263;138173;-85
2024/01/08 00:25:27;;;;;;;26.90;16.10;;;;;;;-7.37;100.00;96617.55;108294;1268;22591;-85
2024/01/08 00:27:54;;;;;;;29.10;17.10;;;;;;;-7.37;100.00;96618.91;108259;1282;138102;-85
2024/01/08 00:30:21;;;;;;;29.80;18.20;;;;;;;-7.40;100.00;96620.87;109892;1279;23286;-86
2024/01/08 00:32:48;;;;;;;20.50;16.70;;;;;;;-7.42;100.00;96616.77;108333;1281;22525;-86
2024/01/08 00:35:14;;;;;;;26.40;16.80;;;;;;;-7.40;100.00;96620.36;108308;1282;138785;-86
2024/01/08 00:37:41;;;;;;;23.90;17.90;;;;;;;-7.37;100.00;96621.77;108507;1280;22668;-85
2024/01/08 00:40:09;;;;;;;23.50;16.50;;;;;;;-7.36;100.00;96622.20;108179;1283;138298;-86
2024/01/08 00:42:36;;;;;;;24.20;17.20;;;;;;;-7.34;100.00;96623.81;108957;1283;22530;-85
2024/01/08 00:45:04;;;;;;;23.10;15.50;;;;;;;-7.38;99.86;96620.95;108281;1284;22527;-85
2024/01/08 00:47:30;;;;;;;24.80;17.00;;;;;;;-7.47;99.20;96626.08;108180;1282;138255;-86
2024/01/08 00:49:57;;;;;;;24.90;17.30;;;;;;;-7.59;99.28;96628.94;108307;1282;22578;-86
2024/01/08 00:52:24;;;;;;;24.40;16.70;;;;;;;-7.62;99.78;96626.40;108225;1274;138577;-85
2024/01/08 00:54:50;;;;;;;23.50;16.90;;;;;;;-7.61;99.81;96632.55;108311;1283;24182;-85
2024/01/08 00:57:17;;;;;;;21.50;15.90;;;;;;;-7.60;99.77;96633.84;108364;1282;22547;-85
2024/01/08 00:59:43;;;;;;;17.90;15.20;;;;;;;-7.62;99.38;96635.29;108322;1282;138207;-85
2024/01/08 01:02:10;;;;;;;20.30;15.60;;;;;;;-7.68;99.39;96636.71;108333;1282;22530;-85
2024/01/08 01:04:37;;;;;;;20.70;14.90;;;;;;;-7.71;99.72;96635.02;108232;1282;138413;-85
2024/01/08 01:07:03;;;;;;;22.30;16.10;;;;;;;-7.76;99.94;96640.60;108362;1279;25001;-84
2024/01/08 01:09:30;;;;;;;24.50;18.20;;;;;;;-7.81;100.00;96641.14;108426;1282;22516;-85
2024/01/08 01:11:57;;;;;;;25.00;16.40;;;;;;;-7.83;100.00;96646.45;108240;1282;138624;-85
2024/01/08 01:14:23;;;;;;;22.10;16.40;;;;;;;-7.86;100.00;96647.55;108299;1282;22583;-85
2024/01/08 01:16:50;;;;;;;24.00;16.80;;;;;;;-7.89;99.96;96650.19;108250;1282;139766;-85
2024/01/08 01:19:17;;;;;;;21.80;15.60;;;;;;;-7.86;100.00;96646.38;108345;1282;22523;-85
2024/01/08 01:21:43;;;;;;;26.30;16.10;;;;;;;-7.86;100.00;96649.56;108355;1282;22689;-85
2024/01/08 01:24:10;;;;;;;24.10;16.60;;;;;;;-7.86;100.00;96651.24;108310;1282;139092;-85
2024/01/08 01:26:36;;;;;;;24.30;18.10;;;;;;;-7.83;100.00;96656.35;108342;1282;23372;-85
2024/01/08 01:29:03;;;;;;;22.20;15.30;;;;;;;-7.85;99.66;96662.00;108242;1279;139654;-85
2024/01/08 01:31:31;;;;;;;20.60;14.50;;;;;;;-7.91;99.05;96660.39;108457;1282;23827;-85
2024/01/08 01:33:58;;;;;;;18.80;13.90;;;;;;;-7.95;98.86;96662.08;108411;1279;139329;-86
2024/01/08 01:36:24;;;;;;;19.50;13.80;;;;;;;-7.99;98.66;96662.52;109456;1278;22660;-85
2024/01/08 01:38:51;;;;;;;19.90;14.20;;;;;;;-8.05;98.09;96659.95;108290;1282;22527;-83
2024/01/08 01:41:17;;;;;;;19.40;14.50;;;;;;;-8.12;97.83;96657.52;108212;1283;139391;-83
2024/01/08 01:43:44;;;;;;;23.10;15.00;;;;;;;-8.18;97.95;96658.27;108422;1282;22540;-84
2024/01/08 01:46:32;;;;;;;17.50;13.30;;;;;;;-8.22;97.95;96659.95;108368;1283;139044;-85
2024/01/08 01:48:59;;;;;;;16.00;11.70;;;;;;;-8.27;97.99;96658.48;108628;1277;22733;-84
2024/01/08 01:51:26;;;;;;;22.60;13.50;;;;;;;-8.31;97.78;96663.51;108338;1283;24259;-84
2024/01/08 01:53:53;;;;;;;21.20;14.10;;;;;;;-8.35;97.83;96666.38;108274;1281;138795;-84
2024/01/08 01:56:19;;;;;;;22.00;13.50;;;;;;;-8.36;98.02;96665.61;108324;1283;22564;-84
2024/01/08 01:58:46;;;;;;;17.20;14.10;;;;;;;-8.40;97.55;96667.94;108331;1279;138651;-84
2024/01/08 02:01:13;;;;;;;20.50;13.60;;;;;;;-8.47;97.34;96671.89;108438;1266;22567;-83
2024/01/08 02:03:39;;;;;;;18.50;13.10;;;;;;;-8.52;97.46;96670.05;108398;1281;23753;-85
2024/01/08 02:06:10;;;;;;;22.70;15.50;;;;;;;-8.56;97.39;96674.08;108242;1283;138546;-85
2024/01/08 02:08:37;;;;;;;17.60;13.70;;;;;;;-8.60;97.35;96675.60;108409;1283;25331;-84
2024/01/08 02:11:04;;;;;;;22.40;14.90;;;;;;;-8.62;97.64;96671.98;108218;1276;138817;-84
2024/01/08 02:13:31;;;;;;;24.00;16.20;;;;;;;-8.68;97.47;96676.38;108446;1282;22532;-84
2024/01/08 02:15:57;;;;;;;19.00;14.20;;;;;;;-8.72;97.90;96672.86;108316;1282;139230;-84
2024/01/08 02:18:24;;;;;;;19.80;15.00;;;;;;;-8.73;98.14;96682.48;108345;1282;23266;-83
2024/01/08 02:20:50;;;;;;;20.50;15.10;;;;;;;-8.75;98.27;96683.89;108343;1281;22694;-84
2024/01/08 02:23:17;;;;;;;25.50;14.60;;;;;;;-8.76;98.37;96685.77;108289;1282;138969;-84
2024/01/08 02:25:44;;;;;;;23.00;15.20;;;;;;;-8.77;98.52;96687.17;108372;1281;25323;-84
2024/01/08 02:28:10;;;;;;;24.00;16.30;;;;;;;-8.77;98.72;96688.52;108133;1281;139048;-84
2024/01/08 02:30:37;;;;;;;28.20;17.70;;;;;;;-8.78;98.71;96696.42;108361;1278;22552;-84
2024/01/08 02:33:04;;;;;;;24.40;15.50;;;;;;;-8.81;98.55;96695.16;108289;1282;25243;-84
2024/01/08 02:35:30;;;;;;;24.30;16.00;;;;;;;-8.83;98.58;96697.41;108389;1277;138941;-84
2024/01/08 02:37:57;;;;;;;22.40;16.00;;;;;;;-8.82;98.90;96696.39;108343;1282;22524;-84
2024/01/08 02:40:25;;;;;;;19.50;15.00;;;;;;;-8.81;98.47;96694.14;108285;1281;139373;-83
2024/01/08 02:42:52;;;;;;;23.80;15.90;;;;;;;-8.83;98.52;96693.39;109842;1281;25546;-84
2024/01/08 02:45:19;;;;;;;21.10;15.30;;;;;;;-8.86;98.22;96692.66;108678;1282;24549;-84
2024/01/08 02:47:45;;;;;;;26.20;16.70;;;;;;;-8.86;98.37;96695.71;108349;1281;139393;-84
2024/01/08 02:50:12;;;;;;;21.20;14.30;;;;;;;-8.89;98.03;96696.67;108372;1281;22535;-84
2024/01/08 02:52:39;;;;;;;28.90;16.00;;;;;;;-8.89;98.18;96702.01;108243;1282;139463;-85
2024/01/08 02:55:06;;;;;;;23.10;14.30;;;;;;;-8.87;98.14;96704.30;108457;1279;22548;-85
2024/01/08 02:57:33;;;;;;;26.10;17.40;;;;;;;-8.88;98.01;96704.17;108321;1282;22587;-85
2024/01/08 03:00:01;;;;;;;18.90;14.10;;;;;;;-8.89;97.75;96708.40;108307;1278;138934;-84
2024/01/08 03:02:28;;;;;;;27.60;16.20;;;;;;;-8.87;97.55;96711.67;108289;1282;22531;-85
2024/01/08 03:04:54;;;;;;;23.40;15.80;;;;;;;-8.86;97.39;96716.86;108225;1281;138772;-85
2024/01/08 03:07:21;;;;;;;22.20;15.00;;;;;;;-8.81;97.75;96719.69;108303;1280;24825;-85
2024/01/08 03:09:50;;;;;;;24.90;14.70;;;;;;;-8.80;97.22;96718.14;108372;1262;22598;-85
2024/01/08 03:12:16;;;;;;;18.30;13.60;;;;;;;-8.82;96.93;96723.42;108283;1282;25457;-86
2024/01/08 03:14:43;;;;;;;21.00;15.00;;;;;;;-8.86;96.91;96723.88;108421;1281;22527;-85
2024/01/08 03:17:10;;;;;;;26.60;16.60;;;;;;;-8.84;97.27;96725.16;108197;1283;138755;-85
2024/01/08 03:19:37;;;;;;;22.10;15.00;;;;;;;-8.80;97.54;96724.17;108486;1276;22532;-85
2024/01/08 03:22:04;;;;;;;20.50;14.50;;;;;;;-8.75;97.26;96731.08;108229;1277;138945;-85
2024/01/08 03:24:31;;;;;;;20.20;13.40;;;;;;;-8.74;96.94;96735.06;108315;1279;22560;-86
2024/01/08 03:26:58;;;;;;;20.00;14.60;;;;;;;-8.74;96.68;96737.76;108308;1281;27731;-85
2024/01/08 03:29:24;;;;;;;22.20;14.70;;;;;;;-8.78;96.13;96742.74;108218;1281;138379;-84
2024/01/08 03:31:51;;;;;;;21.10;15.00;;;;;;;-8.80;96.54;96739.13;108331;1283;22536;-84
2024/01/08 03:34:18;;;;;;;18.80;13.60;;;;;;;-8.80;96.79;96742.96;108275;1281;138685;-84
2024/01/08 03:36:46;;;;;;;20.70;15.50;;;;;;;-8.79;96.71;96742.28;108359;1282;23220;-83
2024/01/08 03:39:13;;;;;;;21.10;14.10;;;;;;;-8.82;96.02;96741.70;108443;1260;24184;-83
2024/01/08 03:41:40;;;;;;;15.00;12.90;;;;;;;-8.85;95.90;96747.52;109756;1282;138813;-84
2024/01/08 03:44:08;;;;;;;23.00;15.30;;;;;;;-8.84;96.14;96747.98;109987;1281;22209;-84
2024/01/08 03:46:34;;;;;;;19.90;13.50;;;;;;;-8.83;95.89;96751.16;109743;1283;139187;-85
2024/01/08 03:49:02;;;;;;;25.10;14.70;;;;;;;-8.82;95.79;96748.77;109937;1278;22151;-85
2024/01/08 03:51:28;;;;;;;19.10;13.20;;;;;;;-8.79;95.86;96758.06;109817;1282;22211;-84
2024/01/08 03:53:55;;;;;;;21.60;15.70;;;;;;;-8.76;95.70;96758.34;108536;1274;138625;-84
2024/01/08 03:56:21;;;;;;;21.60;15.00;;;;;;;-8.76;95.34;96756.13;108311;1282;22570;-83
2024/01/08 03:58:48;;;;;;;23.80;15.10;;;;;;;-8.77;95.05;96757.02;108356;1282;139083;-84
2024/01/08 04:01:15;;;;;;;21.80;14.10;;;;;;;-8.81;95.09;96762.66;108448;1282;22613;-84
2024/01/08 04:03:42;;;;;;;19.50;15.80;;;;;;;-8.77;95.33;96761.21;108316;1283;25696;-83
2024/01/08 04:06:08;;;;;;;19.80;13.60;;;;;;;-8.76;95.20;96763.19;108273;1282;138533;-85
2024/01/08 04:08:35;;;;;;;20.50;13.20;;;;;;;-8.78;95.07;96763.59;108425;1282;23258;-85
2024/01/08 04:11:03;;;;;;;22.50;14.20;;;;;;;-8.82;94.81;96763.70;108215;1283;138749;-85
2024/01/08 04:13:31;;;;;;;18.70;13.70;;;;;;;-8.83;95.08;96768.94;108516;1283;22575;-85
2024/01/08 04:15:57;;;;;;;21.60;15.80;;;;;;;-8.83;95.12;96767.09;108209;1269;138651;-85
2024/01/08 04:18:24;;;;;;;20.80;13.90;;;;;;;-8.85;94.77;96771.70;108296;1283;22571;-85
2024/01/08 04:20:50;;;;;;;23.30;14.90;;;;;;;-8.83;95.39;96776.83;108401;1282;22524;-85
2024/01/08 04:23:17;;;;;;;18.60;13.80;;;;;;;-8.82;95.18;96779.16;108174;1274;138285;-85
2024/01/08 04:25:44;;;;;;;23.10;16.60;;;;;;;-8.83;95.08;96782.73;108371;1282;22534;-85
2024/01/08 04:28:10;;;;;;;20.60;14.20;;;;;;;-8.85;94.72;96791.20;108259;1282;138611;-85
2024/01/08 04:30:37;;;;;;;21.50;14.70;;;;;;;-8.84;94.92;96793.48;108324;1283;22527;-85
2024/01/08 04:33:03;;;;;;;17.70;13.30;;;;;;;-8.84;94.97;96796.66;108339;1273;25711;-85
2024/01/08 04:35:30;;;;;;;25.10;15.90;;;;;;;-8.80;95.44;96797.23;108223;1283;138362;-86
2024/01/08 04:37:57;;;;;;;23.40;16.50;;;;;;;-8.82;94.89;96802.30;108310;1280;24869;-85
2024/01/08 04:40:23;;;;;;;22.60;14.30;;;;;;;-8.83;94.82;96804.71;108191;1282;138548;-85
2024/01/08 04:42:50;;;;;;;22.70;15.00;;;;;;;-8.89;94.71;96804.58;108463;1282;22534;-85
2024/01/08 04:45:17;;;;;;;25.10;16.00;;;;;;;-8.91;95.15;96806.52;108335;1282;22584;-85
2024/01/08 04:47:43;;;;;;;25.40;16.50;;;;;;;-8.90;95.35;96812.01;108235;1284;138413;-85
2024/01/08 04:50:10;;;;;;;20.00;14.50;;;;;;;-8.90;95.06;96817.23;108253;1275;22724;-85
2024/01/08 04:52:36;;;;;;;22.20;14.90;;;;;;;-8.89;95.32;96818.72;108253;1283;138296;-85
2024/01/08 04:55:03;;;;;;;25.30;16.70;;;;;;;-8.90;95.17;96820.59;108304;1275;22526;-85
2024/01/08 04:57:30;;;;;;;22.80;15.40;;;;;;;-8.94;95.34;96826.11;108300;1283;22521;-85
2024/01/08 04:59:56;;;;;;;30.30;17.00;;;;;;;-8.89;95.98;96822.89;108140;1281;138520;-85
2024/01/08 05:02:23;;;;;;;18.40;13.90;;;;;;;-8.86;95.91;96826.14;108350;1282;25436;-85
2024/01/08 05:04:49;;;;;;;26.20;17.40;;;;;;;-8.83;95.85;96830.38;108273;1282;138362;-85
2024/01/08 05:07:16;;;;;;;29.00;16.40;;;;;;;-8.82;95.82;96832.55;108287;1283;22570;-85
2024/01/08 05:09:43;;;;;;;21.70;16.10;;;;;;;-8.82;95.61;96831.02;108400;1281;22507;-85
2024/01/08 05:12:10;;;;;;;27.60;16.70;;;;;;;-8.86;94.81;96836.72;108302;1281;138549;-85
2024/01/08 05:14:37;;;;;;;20.40;14.20;;;;;;;-8.90;94.37;96845.92;108307;1276;22532;-85
2024/01/08 05:17:03;;;;;;;23.80;15.10;;;;;;;-8.90;94.47;96850.14;108193;1282;138513;-85
2024/01/08 05:19:30;;;;;;;20.60;15.90;;;;;;;-8.90;94.28;96851.50;108480;1281;22591;-85
2024/01/08 05:21:56;;;;;;;28.00;17.00;;;;;;;-8.93;94.29;96851.41;108336;1281;138679;-85
2024/01/08 05:24:23;;;;;;;27.00;17.30;;;;;;;-8.98;93.95;96855.77;108381;1281;22533;-85
2024/01/08 05:26:50;;;;;;;25.60;17.10;;;;;;;-9.00;94.28;96852.98;108330;1282;23006;-85
2024/01/08 05:29:16;;;;;;;25.40;15.90;;;;;;;-9.04;93.86;96857.98;108187;1278;138321;-85
2024/01/08 05:31:43;;;;;;;23.40;16.30;;;;;;;-9.05;94.14;96865.08;108495;1279;22912;-85
2024/01/08 05:34:10;;;;;;;27.70;17.00;;;;;;;-9.05;94.30;96869.60;108285;1277;138451;-85
2024/01/08 05:36:40;;;;;;;28.20;16.80;;;;;;;-9.03;94.60;96878.77;108386;1282;22549;-86
2024/01/08 05:39:07;;;;;;;20.60;14.90;;;;;;;-9.04;94.56;96879.13;108403;1282;25253;-85
2024/01/08 05:41:39;;;;;;;19.00;13.90;;;;;;;-9.01;95.09;96890.96;108394;1282;138525;-85
2024/01/08 05:44:06;;;;;;;26.60;16.20;;;;;;;-9.01;94.94;96890.44;109907;1276;22983;-85
2024/01/08 05:46:32;;;;;;;21.50;15.50;;;;;;;-9.01;94.83;96895.83;109768;1281;138689;-85
2024/01/08 05:48:59;;;;;;;25.30;17.30;;;;;;;-9.03;94.47;96896.39;108841;1281;23167;-85
2024/01/08 05:51:29;;;;;;;24.50;16.00;;;;;;;-9.05;94.18;96898.46;108387;1277;24463;-85
2024/01/08 05:53:56;;;;;;;27.30;15.90;;;;;;;-9.05;94.17;96902.19;108204;1282;138418;-85
2024/01/08 05:56:22;;;;;;;20.50;14.90;;;;;;;-9.04;94.12;96905.17;108350;1283;22537;-85
2024/01/08 05:58:49;;;;;;;19.70;13.90;;;;;;;-9.07;93.85;96906.94;108243;1281;138371;-84
2024/01/08 06:01:17;;;;;;;17.60;13.20;;;;;;;-9.10;93.74;96907.01;108389;1282;22518;-85
2024/01/08 06:03:44;;;;;;;21.40;15.70;;;;;;;-9.09;93.69;96903.65;108395;1282;22557;-85
2024/01/08 06:06:14;;;;;;;25.30;16.60;;;;;;;-9.11;93.75;96907.89;108269;1282;138153;-85
2024/01/08 06:08:40;;;;;;;23.90;17.10;;;;;;;-9.13;93.57;96914.00;108332;1282;22527;-85
2024/01/08 06:11:09;;;;;;;26.50;17.50;;;;;;;-9.15;93.43;96918.92;108276;1278;138680;-85
2024/01/08 06:13:36;;;;;;;24.70;15.40;;;;;;;-9.15;93.43;96926.13;108349;1275;22599;-85
2024/01/08 06:16:02;;;;;;;22.60;16.00;;;;;;;-9.20;92.79;96927.64;108243;1278;138474;-85
2024/01/08 06:18:33;;;;;;;25.00;16.70;;;;;;;-9.24;93.14;96927.61;108366;1282;22717;-84
2024/01/08 06:20:59;;;;;;;24.70;16.90;;;;;;;-9.24;93.21;96928.79;108423;1281;22629;-84
2024/01/08 06:23:26;;;;;;;27.40;17.00;;;;;;;-9.22;93.53;96931.57;108353;1283;139090;-84
2024/01/08 06:25:54;;;;;;;21.40;16.50;;;;;;;-9.21;93.25;96933.55;108520;1277;23236;-84
2024/01/08 06:28:21;;;;;;;24.60;17.30;;;;;;;-9.23;93.13;96931.63;108146;1283;138949;-84
2024/01/08 06:30:48;;;;;;;21.90;15.70;;;;;;;-9.26;93.10;96935.08;108323;1276;22542;-84
2024/01/08 06:33:14;;;;;;;28.70;17.80;;;;;;;-9.26;93.41;96941.09;108408;1283;22606;-84
2024/01/08 06:35:41;;;;;;;24.30;16.50;;;;;;;-9.23;93.72;96945.21;108283;1282;139283;-83
2024/01/08 06:38:08;;;;;;;29.70;18.30;;;;;;;-9.24;93.80;96945.56;108375;1282;24234;-84
2024/01/08 06:40:35;;;;;;;29.90;18.60;;;;;;;-9.22;94.12;96950.54;108254;1281;138699;-83
2024/01/08 06:43:01;;;;;;;30.60;19.70;;;;;;;-9.22;94.07;96959.94;108382;1282;22542;-84
2024/01/08 06:45:28;;;;;;;25.60;18.20;;;;;;;-9.26;93.83;96960.56;108384;1277;22530;-85
2024/01/08 06:47:55;;;;;;;31.20;20.40;;;;;;;-9.23;94.43;96959.81;108423;1282;138328;-85
2024/01/08 06:50:21;;;;;;;26.00;16.40;;;;;;;-9.23;94.44;96965.02;108427;1272;22550;-86
2024/01/08 06:52:48;;;;;;;23.60;15.90;;;;;;;-9.25;94.42;96967.93;108281;1282;138270;-85
2024/01/08 06:55:15;;;;;;;28.50;16.60;;;;;;;-9.29;94.44;96967.17;108518;1281;22590;-84
2024/01/08 06:57:42;;;;;;;27.20;16.90;;;;;;;-9.34;94.25;96971.55;108355;1283;22524;-84
2024/01/08 07:00:09;;;;;;;21.80;15.30;;;;;;;-9.36;94.31;96973.14;108424;1282;137144;-85
2024/01/08 07:02:35;;;;;;;25.80;17.70;;;;;;;-9.36;94.64;96977.31;108457;1282;22689;-84
2024/01/08 07:05:02;;;;;;;24.10;16.70;;;;;;;-9.34;94.54;96980.43;108311;1282;138616;-85
2024/01/08 07:07:29;;;;;;;23.80;16.50;;;;;;;-9.31;94.86;96984.19;108381;1282;22564;-84
2024/01/08 07:09:56;;;;;;;30.10;19.70;;;;;;;-9.27;94.83;96992.32;108223;1283;138497;-85
2024/01/08 07:12:24;;;;;;;24.50;16.90;;;;;;;-9.33;94.13;96992.31;108294;1283;23868;-85
2024/01/08 07:14:52;;;;;;;21.60;15.80;;;;;;;-9.34;94.69;96995.02;108384;1282;22572;-85
2024/01/08 07:17:19;;;;;;;22.20;16.70;;;;;;;-9.33;94.72;97001.04;108244;1282;138555;-85
2024/01/08 07:19:45;;;;;;;27.10;18.20;;;;;;;-9.32;94.65;96999.83;108354;1281;22764;-86
2024/01/08 07:22:12;;;;;;;28.80;18.70;;;;;;;-9.30;94.70;97004.29;108205;1282;138601;-86
2024/01/08 07:24:39;;;;;;;28.80;19.30;;;;;;;-9.27;94.78;97008.23;108287;1280;22534;-85
2024/01/08 07:27:05;;;;;;;26.40;18.60;;;;;;;-9.26;94.43;97015.27;108272;1283;22542;-85
2024/01/08 07:29:32;;;;;;;23.00;15.50;;;;;;;-9.30;93.99;97017.55;108231;1282;137399;-85
2024/01/08 07:31:59;;;;;;;29.30;17.60;;;;;;;-9.35;93.95;97017.89;108353;1283;24165;-85
2024/01/08 07:34:25;;;;;;;27.60;17.50;;;;;;;-9.34;94.48;97023.06;108308;1282;138680;-86
2024/01/08 07:36:53;;;;;;;29.00;20.00;;;;;;;-9.31;94.14;97031.84;108269;1283;22525;-85
2024/01/08 07:39:20;;;;;;;32.20;20.20;;;;;;;-9.37;94.02;97031.02;108341;1282;24267;-85
2024/01/08 07:41:47;;;;;;;23.90;17.20;;;;;;;-9.42;95.11;97028.48;108251;1283;138267;-85
2024/01/08 07:44:14;;;;;;;25.50;16.20;;;;;;;-9.42;95.35;97030.35;108384;1283;23772;-85
2024/01/08 07:46:42;;;;;;;30.10;18.60;;;;;;;-9.43;95.38;97033.70;108263;1272;138358;-86
2024/01/08 07:49:10;;;;;;;28.80;17.40;;;;;;;-9.44;94.80;97035.42;108407;1281;23244;-86
2024/01/08 07:51:37;;;;;;;25.50;15.50;;;;;;;-9.46;94.53;97046.38;108507;1281;23782;-85
2024/01/08 07:54:04;;;;;;;24.30;16.10;;;;;;;-9.44;94.57;97049.52;108271;1281;138496;-85
2024/01/08 07:56:30;;;;;;;33.10;19.00;;;;;;;-9.42;94.17;97053.49;108372;1277;22569;-85
2024/01/08 07:58:57;;;;;;;26.10;16.20;;;;;;;-9.49;93.39;97055.01;108373;1275;138549;-85
2024/01/08 08:01:24;;;;;;;21.00;14.00;;;;;;;-9.53;93.56;97063.52;108450;1282;22535;-85
2024/01/08 08:03:50;;;;;;;27.50;16.60;;;;;;;-9.56;93.50;97067.64;108410;1274;138644;-85
2024/01/08 08:06:17;;;;;;;25.00;16.60;;;;;;;-9.53;94.13;97068.39;108434;1282;22563;-85
2024/01/08 08:08:43;;;;;;;22.20;15.10;;;;;;;-9.46;94.23;97071.19;108319;1275;22561;-86
2024/01/08 08:11:10;;;;;;;30.10;18.60;;;;;;;-9.42;94.10;97070.61;108245;1283;138580;-84
2024/01/08 08:13:37;;;;;;;29.40;17.40;;;;;;;-9.46;93.55;97081.75;108422;1265;22539;-83
2024/01/08 08:16:04;;;;;;;20.90;14.80;;;;;;;-9.48;93.61;97088.01;108206;1264;138743;-84
2024/01/08 08:18:30;;;;;;;31.60;19.30;;;;;;;-9.47;93.82;97091.67;108375;1264;22679;-85
2024/01/08 08:20:57;;;;;;;31.90;21.30;;;;;;;-9.44;93.71;97094.97;108444;1275;22557;-85
2024/01/08 08:23:24;;;;;;;26.80;17.70;;;;;;;-9.44;93.55;97095.63;108585;1278;138434;-86
2024/01/08 08:25:50;;;;;;;31.90;18.20;;;;;;;-9.42;93.90;97102.63;108439;1282;23314;-85
2024/01/08 08:28:18;;;;;;;30.40;20.50;;;;;;;-9.41;93.64;97104.10;108073;1275;139162;-85
2024/01/08 08:30:44;;;;;;;30.30;19.20;;;;;;;-9.40;93.88;97107.95;108378;1276;22527;-86
2024/01/08 08:33:11;;;;;;;27.60;17.80;;;;;;;-9.38;93.92;97112.60;108278;1277;22568;-85
2024/01/08 08:35:38;;;;;;;28.20;18.30;;;;;;;-9.35;93.96;97114.17;108263;1275;138733;-85
2024/01/08 08:38:04;;;;;;;20.60;15.60;;;;;;;-9.36;93.27;97122.59;108474;1282;22539;-85
2024/01/08 08:40:31;;;;;;;28.90;18.40;;;;;;;-9.40;93.02;97125.73;108308;1280;139139;-85
2024/01/08 08:42:58;;;;;;;29.30;18.10;;;;;;;-9.35;93.31;97133.15;108290;1275;22563;-85
2024/01/08 08:45:24;;;;;;;24.10;17.30;;;;;;;-9.36;92.89;97135.69;108373;1275;24441;-85
2024/01/08 08:47:51;;;;;;;27.00;18.50;;;;;;;-9.35;92.84;97137.34;108344;1275;138348;-85
2024/01/08 08:50:18;;;;;;;23.50;16.50;;;;;;;-9.32;93.37;97137.73;108476;1281;22549;-84
2024/01/08 08:52:44;;;;;;;21.30;15.10;;;;;;;-9.26;93.14;97142.14;108383;1283;138992;-85
2024/01/08 08:55:12;;;;;;;24.50;17.00;;;;;;;-9.23;93.00;97142.02;108464;1282;22647;-85
2024/01/08 08:57:39;;;;;;;28.20;17.80;;;;;;;-9.17;93.15;97146.37;108452;1283;22551;-84
2024/01/08 09:00:09;;;;;;;34.40;18.10;;;;;;;-9.13;92.85;97150.12;108422;1282;137328;-85
2024/01/08 09:02:36;;;;;;;30.20;18.70;;;;;;;-9.13;92.25;97152.64;108467;1281;24447;-85
2024/01/08 09:05:05;;;;;;;20.40;15.70;;;;;;;-9.14;91.93;97154.02;108390;1282;138516;-84
2024/01/08 09:07:32;;;;;;;23.20;17.90;;;;;;;-9.12;92.21;97158.15;108653;1283;22663;-84
2024/01/08 09:10:03;;;;;;;21.30;15.00;;;;;;;-9.08;91.97;97157.22;108282;1281;137503;-85
2024/01/08 09:12:30;;;;;;;27.90;18.50;;;;;;;-9.08;91.67;97161.27;108665;1283;22566;-84
2024/01/08 09:14:56;;;;;;;30.60;18.90;;;;;;;-9.09;91.34;97163.80;108437;1281;22650;-84
2024/01/08 09:17:23;;;;;;;27.00;18.60;;;;;;;-9.09;91.40;97165.79;108232;1284;138325;-84
2024/01/08 09:19:50;;;;;;;25.50;16.30;;;;;;;-9.11;91.16;97168.36;108296;1280;22550;-86
2024/01/08 09:22:17;;;;;;;28.30;18.00;;;;;;;-9.04;92.10;97164.84;108159;1284;138756;-86
2024/01/08 09:24:43;;;;;;;28.20;19.60;;;;;;;-9.01;91.94;97165.91;108291;1284;23314;-85
2024/01/08 09:27:10;;;;;;;28.00;17.70;;;;;;;-8.99;91.85;97164.48;108225;1284;23844;-85
2024/01/08 09:29:37;;;;;;;27.30;17.40;;;;;;;-8.98;91.02;97164.64;108215;1281;138587;-85
2024/01/08 09:32:04;;;;;;;26.20;17.10;;;;;;;-8.97;91.02;97163.78;108235;1282;22571;-86
2024/01/08 09:34:31;;;;;;;26.30;16.70;;;;;;;-8.98;90.28;97163.31;108300;1281;138741;-86
2024/01/08 09:36:57;;;;;;;25.10;17.60;;;;;;;-8.95;90.76;97165.58;108311;1283;23025;-85
2024/01/08 09:39:24;;;;;;;22.40;16.40;;;;;;;-8.89;91.06;97172.44;108402;1277;24209;-86
2024/01/08 09:41:50;;;;;;;30.70;19.20;;;;;;;-8.81;91.40;97164.98;108200;1283;138632;-86
2024/01/08 09:44:17;;;;;;;29.20;19.40;;;;;;;-8.80;90.70;97168.14;108262;1280;22526;-85
2024/01/08 09:46:47;;;;;;;28.00;18.10;;;;;;;-8.74;90.93;97171.02;108164;1279;138907;-85
2024/01/08 09:49:14;;;;;;;27.10;18.90;;;;;;;-8.73;90.53;97169.45;109849;1281;22266;-86
2024/01/08 09:51:41;;;;;;;24.70;17.40;;;;;;;-8.70;90.55;97172.55;109799;1280;22270;-86
2024/01/08 09:54:08;;;;;;;25.90;19.40;;;;;;;-8.68;90.60;97175.17;108629;1282;138906;-85
2024/01/08 09:56:34;;;;;;;24.40;17.70;;;;;;;-8.68;89.77;97177.70;108337;1277;25514;-86
2024/01/08 09:59:01;;;;;;;29.40;20.00;;;;;;;-8.63;90.15;97176.73;108141;1282;139052;-86
2024/01/08 10:01:27;;;;;;;26.30;17.00;;;;;;;-8.64;89.68;97175.88;108360;1277;24047;-85
2024/01/08 10:03:54;;;;;;;29.40;19.60;;;;;;;-8.63;89.77;97176.88;108246;1283;138618;-86
2024/01/08 10:06:20;;;;;;;26.90;18.40;;;;;;;-8.66;88.97;97177.46;108240;1283;22551;-85
2024/01/08 10:08:51;;;;;;;28.10;17.80;;;;;;;-8.67;88.79;97179.88;108324;1282;22542;-85
2024/01/08 10:11:18;;;;;;;31.40;19.90;;;;;;;-8.71;88.48;97181.33;108282;1275;138558;-86
2024/01/08 10:13:44;;;;;;;25.70;18.70;;;;;;;-8.72;88.94;97178.69;108341;1283;25258;-86
2024/01/08 10:16:11;;;;;;;21.60;14.60;;;;;;;-8.68;89.53;97180.55;108282;1275;139194;-85
2024/01/08 10:18:38;;;;;;;27.00;18.60;;;;;;;-8.68;88.80;97186.94;108325;1260;22803;-86
2024/01/08 10:21:09;;;;;;;28.20;19.70;;;;;;;-8.75;88.52;97184.48;108382;1283;22542;-86
2024/01/08 10:23:36;;;;;;;25.90;17.80;;;;;;;-8.73;89.38;97181.91;109558;1280;139135;-86
2024/01/08 10:26:03;;;;;;;27.80;18.60;;;;;;;-8.74;89.17;97185.62;108300;1282;24002;-85
2024/01/08 10:28:37;;;;;;;26.70;16.50;;;;;;;-8.77;88.84;97184.02;108310;1283;139187;-84
2024/01/08 10:31:05;;;;;;;24.10;17.50;;;;;;;-8.77;89.95;97180.17;108434;1282;22561;-85
2024/01/08 10:33:32;;;;;;;28.10;18.50;;;;;;;-8.71;89.95;97183.50;108659;1276;24412;-84
2024/01/08 10:36:01;;;;;;;28.70;18.90;;;;;;;-8.67;90.04;97187.42;108274;1280;138127;-85
2024/01/08 10:38:30;;;;;;;26.60;17.00;;;;;;;-8.62;89.78;97187.63;108301;1275;23754;-85
2024/01/08 10:40:57;;;;;;;30.70;18.80;;;;;;;-8.66;89.24;97190.92;108191;1282;138587;-84
2024/01/08 10:43:24;;;;;;;27.80;19.50;;;;;;;-8.69;88.99;97188.80;108259;1261;22651;-84
2024/01/08 10:45:53;;;;;;;28.00;17.10;;;;;;;-8.69;88.75;97188.82;108215;1280;138477;-84
2024/01/08 10:48:32;;;;;;;29.40;18.90;;;;;;;-8.70;88.98;97186.69;108286;1259;22570;-84
2024/01/08 10:50:59;;;;;;;24.10;17.30;;;;;;;-8.67;89.11;97187.77;108383;1277;22552;-84
2024/01/08 10:53:42;;;;;;;29.10;18.60;;;;;;;-8.66;88.58;97187.04;108293;1282;138531;-85
2024/01/08 10:56:11;;;;;;;22.00;15.10;;;;;;;-8.59;89.24;97193.42;108377;1277;24268;-86
2024/01/08 10:58:38;;;;;;;21.90;15.40;;;;;;;-8.53;89.01;97196.05;109289;1275;138617;-84
2024/01/08 11:01:07;;;;;;;27.50;18.30;;;;;;;-8.49;89.14;97198.12;108263;1279;22553;-84
2024/01/08 11:03:35;;;;;;;24.10;16.40;;;;;;;-8.53;87.51;97201.44;108359;1277;22534;-84